createdAt,value
2019-03-21T00:02:02.497Z,6.73
2019-03-21T00:04:31.022Z,6.80
2019-03-21T00:06:59.596Z,6.90
2019-03-21T00:09:28.138Z,7.83
2019-03-21T00:11:59.110Z,7.23
2019-03-21T00:14:51.769Z,5.87
2019-03-21T00:17:29.671Z,8.00
2019-03-21T00:19:58.213Z,7.90
2019-03-21T00:22:26.784Z,8.60
2019-03-21T00:24:55.320Z,7.03
2019-03-21T00:27:23.945Z,7.80
2019-03-21T00:29:52.486Z,7.90
2019-03-21T00:32:21.059Z,7.13
2019-03-21T00:34:49.594Z,7.63
2019-03-21T00:37:18.171Z,9.40
2019-03-21T00:39:46.699Z,9.10
2019-03-21T00:42:15.272Z,8.10
2019-03-21T00:44:43.875Z,7.90
2019-03-21T00:47:13.994Z,9.97
2019-03-21T00:49:42.535Z,13.73
2019-03-21T00:52:13.673Z,8.27
2019-03-21T00:54:45.006Z,7.93
2019-03-21T00:57:13.842Z,6.53
2019-03-21T00:59:43.094Z,7.90
2019-03-21T01:02:11.557Z,7.00
2019-03-21T01:04:40.046Z,6.30
2019-03-21T01:07:08.574Z,7.20
2019-03-21T01:09:37.218Z,7.53
2019-03-21T01:12:05.817Z,6.13
2019-03-21T01:14:34.338Z,7.87
2019-03-21T01:17:02.882Z,7.03
2019-03-21T01:19:33.323Z,7.00
2019-03-21T01:22:01.624Z,6.70
2019-03-21T01:24:30.182Z,6.53
2019-03-21T01:26:58.723Z,6.23
2019-03-21T01:29:27.286Z,5.93
2019-03-21T01:31:55.827Z,7.77
2019-03-21T01:34:24.385Z,6.90
2019-03-21T01:36:52.846Z,6.03
2019-03-21T01:39:21.415Z,7.83
2019-03-21T01:41:49.949Z,7.20
2019-03-21T01:44:18.439Z,7.03
2019-03-21T01:46:46.898Z,6.97
2019-03-21T01:49:15.398Z,7.10
2019-03-21T01:51:43.934Z,6.20
2019-03-21T01:54:12.467Z,5.73
2019-03-21T01:56:41.027Z,6.60
2019-03-21T01:59:09.576Z,6.50
2019-03-21T02:01:38.202Z,5.60
2019-03-21T02:04:06.733Z,6.10
2019-03-21T02:06:35.302Z,6.87
2019-03-21T02:09:06.310Z,6.20
2019-03-21T02:11:34.803Z,6.07
2019-03-21T02:14:03.334Z,6.00
2019-03-21T02:16:31.822Z,5.70
2019-03-21T02:19:00.290Z,5.97
2019-03-21T02:21:28.850Z,6.50
2019-03-21T02:23:57.450Z,5.77
2019-03-21T02:26:26.015Z,6.23
2019-03-21T02:28:54.555Z,7.30
2019-03-21T02:31:23.136Z,6.50
2019-03-21T02:33:51.679Z,7.13
2019-03-21T02:36:20.209Z,6.13
2019-03-21T02:38:48.781Z,6.30
2019-03-21T02:41:17.609Z,5.70
2019-03-21T02:43:46.152Z,5.40
2019-03-21T02:46:14.746Z,6.80
2019-03-21T02:48:43.454Z,5.80
2019-03-21T02:51:11.977Z,5.93
2019-03-21T02:53:40.470Z,5.90
2019-03-21T02:56:12.094Z,6.20
2019-03-21T02:58:40.655Z,6.00
2019-03-21T03:01:09.195Z,5.80
2019-03-21T03:03:37.763Z,6.23
2019-03-21T03:06:06.295Z,5.90
2019-03-21T03:08:34.860Z,6.13
2019-03-21T03:11:10.494Z,6.30
2019-03-21T03:13:37.561Z,5.93
2019-03-21T03:16:06.103Z,5.70
2019-03-21T03:18:34.681Z,5.53
2019-03-21T03:21:03.202Z,5.27
2019-03-21T03:23:31.754Z,5.73
2019-03-21T03:26:00.219Z,6.00
2019-03-21T03:28:31.195Z,6.60
2019-03-21T03:30:59.791Z,6.27
2019-03-21T03:33:28.658Z,5.90
2019-03-21T03:35:57.299Z,5.77
2019-03-21T03:38:26.666Z,5.77
2019-03-21T03:41:03.123Z,6.50
2019-03-21T03:43:31.686Z,5.53
2019-03-21T03:46:00.218Z,6.20
2019-03-21T03:48:28.928Z,5.60
2019-03-21T03:50:57.491Z,5.83
2019-03-21T03:53:26.030Z,5.33
2019-03-21T03:55:54.586Z,5.70
2019-03-21T03:58:30.906Z,6.83
2019-03-21T04:01:00.458Z,6.30
2019-03-21T04:03:29.085Z,5.93
2019-03-21T04:05:57.810Z,6.00
2019-03-21T04:08:26.418Z,5.93
2019-03-21T04:10:56.883Z,6.30
2019-03-21T04:13:25.425Z,6.40
2019-03-21T04:15:54.361Z,6.30
2019-03-21T04:18:24.794Z,5.37
2019-03-21T04:21:07.873Z,5.30
2019-03-21T04:23:36.442Z,5.70
2019-03-21T04:26:23.037Z,6.80
2019-03-21T04:28:51.912Z,5.70
2019-03-21T04:31:20.473Z,5.60
2019-03-21T04:33:51.643Z,6.63
2019-03-21T04:36:20.467Z,6.23
2019-03-21T04:38:49.007Z,6.40
2019-03-21T04:41:17.534Z,6.33
2019-03-21T04:43:46.094Z,6.10
2019-03-21T04:46:14.629Z,6.63
2019-03-21T04:48:43.116Z,5.90
2019-03-21T04:51:11.651Z,6.70
2019-03-21T04:53:40.397Z,6.27
2019-03-21T04:56:08.935Z,6.57
2019-03-21T04:58:37.502Z,6.27
2019-03-21T05:01:05.957Z,5.60
2019-03-21T05:03:34.518Z,6.20
2019-03-21T05:06:03.329Z,5.90
2019-03-21T05:08:31.887Z,5.67
2019-03-21T05:11:00.437Z,6.23
2019-03-21T05:13:28.991Z,6.00
2019-03-21T05:15:57.534Z,5.70
2019-03-21T05:18:41.143Z,5.33
2019-03-21T05:21:19.127Z,5.43
2019-03-21T05:23:47.690Z,5.63
2019-03-21T05:26:16.233Z,6.50
2019-03-21T05:28:44.798Z,6.30
2019-03-21T05:31:22.289Z,6.30
2019-03-21T05:33:50.853Z,6.23
2019-03-21T05:36:19.313Z,6.57
2019-03-21T05:38:47.881Z,6.20
2019-03-21T05:41:16.416Z,6.10
2019-03-21T05:43:48.513Z,6.30
2019-03-21T05:46:26.461Z,6.40
2019-03-21T05:48:48.633Z,7.53
2019-03-21T05:51:17.179Z,6.70
2019-03-21T05:53:45.738Z,6.37
2019-03-21T05:56:14.270Z,7.30
2019-03-21T05:58:42.770Z,7.30
2019-03-21T06:01:12.351Z,7.23
2019-03-21T06:03:53.638Z,6.60
2019-03-21T06:06:47.559Z,7.70
2019-03-21T06:09:22.893Z,6.57
2019-03-21T06:11:54.511Z,6.60
2019-03-21T06:14:23.211Z,6.37
2019-03-21T06:16:51.759Z,6.30
2019-03-21T06:19:25.835Z,5.77
2019-03-21T06:22:12.279Z,7.27
2019-03-21T06:24:43.914Z,6.90
2019-03-21T06:27:29.737Z,7.40
2019-03-21T06:29:58.361Z,7.47
2019-03-21T06:32:28.237Z,6.87
2019-03-21T06:34:57.369Z,7.77
2019-03-21T06:37:28.715Z,7.90
2019-03-21T06:39:56.733Z,7.30
2019-03-21T06:42:25.261Z,6.67
2019-03-21T06:44:53.902Z,6.70
2019-03-21T06:47:22.450Z,6.83
2019-03-21T06:49:51.004Z,5.70
2019-03-21T06:52:19.542Z,6.23
2019-03-21T06:54:48.110Z,5.50
2019-03-21T06:57:16.647Z,6.13
2019-03-21T06:59:45.295Z,7.10
2019-03-21T07:02:13.841Z,6.20
2019-03-21T07:04:42.399Z,6.63
2019-03-21T07:07:10.942Z,7.80
2019-03-21T07:09:39.532Z,7.30
2019-03-21T07:12:08.131Z,5.83
2019-03-21T07:14:36.697Z,6.20
2019-03-21T07:17:05.299Z,6.57
2019-03-21T07:19:33.839Z,5.50
2019-03-21T07:22:02.401Z,5.80
2019-03-21T07:24:30.935Z,6.13
2019-03-21T07:26:59.517Z,6.40
2019-03-21T07:29:28.041Z,6.00
2019-03-21T07:31:58.138Z,5.70
2019-03-21T07:34:26.611Z,5.30
2019-03-21T07:36:55.239Z,5.53
2019-03-21T07:39:23.701Z,5.60
2019-03-21T07:41:52.266Z,5.00
2019-03-21T07:44:20.803Z,6.40
2019-03-21T07:46:49.361Z,5.60
2019-03-21T07:49:17.823Z,6.00
2019-03-21T07:51:46.383Z,4.97
2019-03-21T07:54:14.923Z,4.70
2019-03-21T07:56:43.493Z,5.37
2019-03-21T07:59:12.022Z,5.13
2019-03-21T08:01:40.581Z,5.50
2019-03-21T08:04:09.046Z,5.23
2019-03-21T08:06:37.614Z,5.60
2019-03-21T08:09:07.388Z,4.33
2019-03-21T08:11:35.878Z,4.50
2019-03-21T08:14:04.587Z,4.43
2019-03-21T08:16:33.226Z,5.50
2019-03-21T08:19:01.755Z,4.63
2019-03-21T08:21:30.394Z,5.40
2019-03-21T08:23:58.930Z,4.43
2019-03-21T08:26:27.413Z,5.00
2019-03-21T08:28:55.953Z,5.10
2019-03-21T08:31:24.488Z,4.80
2019-03-21T08:33:53.054Z,4.80
2019-03-21T08:36:21.599Z,4.13
2019-03-21T08:38:50.289Z,3.97
2019-03-21T08:41:18.765Z,4.73
2019-03-21T08:43:47.335Z,4.50
2019-03-21T08:46:15.875Z,5.03
2019-03-21T08:48:44.437Z,4.20
2019-03-21T08:51:12.969Z,4.57
2019-03-21T08:53:41.453Z,4.70
2019-03-21T08:56:09.919Z,4.37
2019-03-21T08:58:38.478Z,4.53
2019-03-21T09:01:07.082Z,3.97
2019-03-21T09:03:35.722Z,4.10
2019-03-21T09:06:04.605Z,4.40
2019-03-21T09:08:33.182Z,4.30
2019-03-21T09:11:01.788Z,4.47
2019-03-21T09:13:30.346Z,5.10
2019-03-21T09:15:58.891Z,4.70
2019-03-21T09:18:27.450Z,4.70
2019-03-21T09:20:55.915Z,4.93
2019-03-21T09:23:24.482Z,4.03
2019-03-21T09:25:53.093Z,4.70
2019-03-21T09:28:21.637Z,4.00
2019-03-21T09:30:50.767Z,4.47
2019-03-21T09:33:19.453Z,4.27
2019-03-21T09:35:48.017Z,4.47
2019-03-21T09:38:16.557Z,5.17
2019-03-21T09:40:45.117Z,5.10
2019-03-21T09:43:13.585Z,5.03
2019-03-21T09:45:42.153Z,4.50
2019-03-21T09:48:10.691Z,4.70
2019-03-21T09:50:39.265Z,6.40
2019-03-21T09:53:07.806Z,4.60
2019-03-21T09:55:36.367Z,5.40
2019-03-21T09:58:04.907Z,4.77
2019-03-21T10:00:37.384Z,5.10
2019-03-21T10:03:06.531Z,4.40
2019-03-21T10:05:35.164Z,5.40
2019-03-21T10:08:03.971Z,5.10
2019-03-21T10:10:33.783Z,5.13
2019-03-21T10:13:02.455Z,4.87
2019-03-21T10:15:31.309Z,5.00
2019-03-21T10:17:59.850Z,5.50
2019-03-21T10:20:28.480Z,4.70
2019-03-21T10:22:56.946Z,4.50
2019-03-21T10:25:26.865Z,4.30
2019-03-21T10:27:55.696Z,2.80
2019-03-21T10:30:35.666Z,3.60
2019-03-21T10:33:05.939Z,3.90
2019-03-21T10:35:34.579Z,3.83
2019-03-21T10:38:03.464Z,4.57
2019-03-21T10:40:32.114Z,3.00
2019-03-21T10:43:00.638Z,3.37
2019-03-21T10:45:29.186Z,4.00
2019-03-21T10:47:57.818Z,5.20
2019-03-21T10:50:32.401Z,4.67
2019-03-21T10:53:01.024Z,3.40
2019-03-21T10:55:29.708Z,3.63
2019-03-21T10:57:58.645Z,3.40
2019-03-21T11:00:27.292Z,4.13
2019-03-21T11:02:55.902Z,4.33
2019-03-21T11:05:24.547Z,3.67
2019-03-21T11:07:53.081Z,4.00
2019-03-21T11:10:21.655Z,4.33
2019-03-21T11:12:50.301Z,4.10
2019-03-21T11:15:18.915Z,4.10
2019-03-21T11:17:47.565Z,4.77
2019-03-21T11:20:30.307Z,3.60
2019-03-21T11:22:58.960Z,4.40
2019-03-21T11:25:27.834Z,4.07
2019-03-21T11:27:56.527Z,4.40
2019-03-21T11:30:33.531Z,3.63
2019-03-21T11:33:02.451Z,4.40
2019-03-21T11:35:31.458Z,3.80
2019-03-21T11:38:00.102Z,3.63
2019-03-21T11:40:28.836Z,3.27
2019-03-21T11:42:57.811Z,3.43
2019-03-21T11:45:26.546Z,4.10
2019-03-21T11:47:55.096Z,3.40
2019-03-21T11:50:23.754Z,4.53
2019-03-21T11:52:52.330Z,4.03
2019-03-21T11:55:20.935Z,3.60
2019-03-21T11:57:49.626Z,3.43
2019-03-21T12:00:18.269Z,3.57
2019-03-21T12:02:46.847Z,3.97
2019-03-21T12:05:15.499Z,3.70
2019-03-21T12:07:44.042Z,3.53
2019-03-21T12:10:13.329Z,4.03
2019-03-21T12:12:41.984Z,3.90
2019-03-21T12:15:12.002Z,4.10
2019-03-21T12:17:40.538Z,3.67
2019-03-21T12:20:11.857Z,3.83
2019-03-21T12:22:40.325Z,3.20
2019-03-21T12:25:09.638Z,3.80
2019-03-21T12:27:38.197Z,3.83
2019-03-21T12:30:10.102Z,3.77
2019-03-21T12:32:38.575Z,4.00
2019-03-21T12:35:08.194Z,4.43
2019-03-21T12:37:36.731Z,4.47
2019-03-21T12:40:08.082Z,3.50
2019-03-21T12:42:36.690Z,4.97
2019-03-21T12:45:09.955Z,4.40
2019-03-21T12:47:38.491Z,4.10
2019-03-21T12:50:08.622Z,4.20
2019-03-21T12:55:07.734Z,6.23
2019-03-21T12:57:36.311Z,4.53
2019-03-21T13:00:10.437Z,4.03
2019-03-21T13:02:38.987Z,3.80
2019-03-21T13:05:08.800Z,3.90
2019-03-21T13:07:13.279Z,3.97
2019-03-21T13:07:37.521Z,4.83
2019-03-21T13:10:07.653Z,4.80
2019-03-21T13:12:36.177Z,4.83
2019-03-21T13:15:06.568Z,4.10
2019-03-21T13:17:35.113Z,4.40
2019-03-21T13:20:06.488Z,3.53
2019-03-21T13:22:35.079Z,4.53
2019-03-21T13:25:04.647Z,3.80
2019-03-21T13:27:33.229Z,3.57
2019-03-21T13:30:03.630Z,3.60
2019-03-21T13:32:31.919Z,3.77
2019-03-21T13:35:00.508Z,3.40
2019-03-21T13:37:29.141Z,3.80
2019-03-21T13:39:57.606Z,4.37
2019-03-21T13:42:26.260Z,4.03
2019-03-21T13:44:54.833Z,4.63
2019-03-21T13:47:24.040Z,4.63
2019-03-21T13:49:52.615Z,4.33
2019-03-21T13:52:21.126Z,5.47
2019-03-21T13:54:49.678Z,4.93
2019-03-21T13:57:18.257Z,4.80
2019-03-21T13:59:46.802Z,4.90
2019-03-21T14:02:15.380Z,4.47
2019-03-21T14:04:43.925Z,5.07
2019-03-21T14:07:12.506Z,6.73
2019-03-21T14:09:41.055Z,5.63
2019-03-21T14:12:09.630Z,5.00
2019-03-21T14:14:38.099Z,5.30
2019-03-21T14:17:06.680Z,5.30
2019-03-21T14:19:35.225Z,7.87
2019-03-21T14:22:03.810Z,6.37
2019-03-21T14:24:32.350Z,5.47
2019-03-21T14:27:00.859Z,6.10
2019-03-21T14:29:29.406Z,6.13
2019-03-21T14:31:57.995Z,6.47
2019-03-21T14:34:26.599Z,5.07
2019-03-21T14:36:55.255Z,4.70
2019-03-21T14:39:23.795Z,4.20
2019-03-21T14:41:52.335Z,5.17
2019-03-21T14:44:20.902Z,5.47
2019-03-21T14:46:49.412Z,5.60
2019-03-21T14:49:17.996Z,5.30
2019-03-21T14:51:46.586Z,4.73
2019-03-21T14:54:15.161Z,5.47
2019-03-21T14:56:43.706Z,5.10
2019-03-21T14:59:12.277Z,5.60
2019-03-21T15:01:40.951Z,5.40
2019-03-21T15:04:09.618Z,5.23
2019-03-21T15:06:38.163Z,6.00
2019-03-21T15:09:06.878Z,6.33
2019-03-21T15:11:35.436Z,6.20
2019-03-21T15:14:04.165Z,5.83
2019-03-21T15:16:32.707Z,5.93
2019-03-21T15:19:01.284Z,5.77
2019-03-21T15:21:29.953Z,5.83
2019-03-21T15:23:59.566Z,5.23
2019-03-21T15:26:28.502Z,6.27
2019-03-21T15:28:58.265Z,5.33
2019-03-21T15:31:26.813Z,10.10
2019-03-21T15:33:55.933Z,8.10
2019-03-21T15:36:24.535Z,7.60
2019-03-21T15:38:53.109Z,6.50
2019-03-21T15:41:21.687Z,7.60
2019-03-21T15:43:50.225Z,7.13
2019-03-21T15:46:18.811Z,9.37
2019-03-21T15:48:47.390Z,9.30
2019-03-21T15:51:15.912Z,8.30
2019-03-21T15:53:54.570Z,7.10
2019-03-21T15:56:14.746Z,7.43
2019-03-21T15:58:43.291Z,5.83
2019-03-21T16:01:11.878Z,6.47
2019-03-21T16:03:40.421Z,6.10
2019-03-21T16:06:09.444Z,10.30
2019-03-21T16:08:37.982Z,7.80
2019-03-21T16:11:06.655Z,6.37
2019-03-21T16:13:35.194Z,5.30
2019-03-21T16:16:04.216Z,5.40
2019-03-21T16:18:32.751Z,5.33
2019-03-21T16:21:01.291Z,5.90
2019-03-21T16:23:29.883Z,6.50
2019-03-21T16:25:58.424Z,5.53
2019-03-21T16:28:27.042Z,6.20
2019-03-21T16:30:55.623Z,6.27
2019-03-21T16:33:25.115Z,6.70
2019-03-21T16:35:53.662Z,5.60
2019-03-21T16:38:22.247Z,5.90
2019-03-21T16:40:50.787Z,5.43
2019-03-21T16:43:19.370Z,5.10
2019-03-21T16:45:47.954Z,5.73
2019-03-21T16:48:16.505Z,5.50
2019-03-21T16:50:45.076Z,7.27
2019-03-21T16:53:13.663Z,20.70
2019-03-21T16:55:42.205Z,9.70
2019-03-21T16:58:10.795Z,8.23
2019-03-21T17:00:39.382Z,7.20
2019-03-21T17:03:07.984Z,5.00
2019-03-21T17:05:36.793Z,4.60
2019-03-21T17:08:11.013Z,4.80
2019-03-21T17:10:35.606Z,5.40
2019-03-21T17:13:04.909Z,5.30
2019-03-21T17:15:33.661Z,4.57
2019-03-21T17:18:02.288Z,4.87
2019-03-21T17:20:31.907Z,5.17
2019-03-21T17:23:00.466Z,4.30
2019-03-21T17:25:31.205Z,4.50
2019-03-21T17:27:59.234Z,4.30
2019-03-21T17:30:27.698Z,4.53
2019-03-21T17:32:56.268Z,4.47
2019-03-21T17:35:24.809Z,4.50
2019-03-21T17:37:53.379Z,4.47
2019-03-21T17:40:21.918Z,4.90
2019-03-21T17:42:50.492Z,5.23
2019-03-21T17:45:19.274Z,9.00
2019-03-21T17:47:47.915Z,6.70
2019-03-21T17:50:18.106Z,6.00
2019-03-21T17:52:47.031Z,6.53
2019-03-21T17:55:16.851Z,6.63
2019-03-21T17:57:45.389Z,6.20
2019-03-21T18:00:21.241Z,5.87
2019-03-21T18:02:49.946Z,6.00
2019-03-21T18:05:19.205Z,4.90
2019-03-21T18:07:47.711Z,6.47
2019-03-21T18:10:27.314Z,5.90
2019-03-21T18:12:55.922Z,6.30
2019-03-21T18:15:24.724Z,7.00
2019-03-21T18:17:53.398Z,6.93
2019-03-21T18:20:21.976Z,6.20
2019-03-21T18:23:09.875Z,6.63
2019-03-21T18:25:38.414Z,7.23
2019-03-21T18:28:08.691Z,7.00
2019-03-21T18:30:37.168Z,7.50
2019-03-21T18:33:05.850Z,8.60
2019-03-21T18:35:34.360Z,8.30
2019-03-21T18:38:03.571Z,7.67
2019-03-21T18:40:32.212Z,7.00
2019-03-21T18:43:00.762Z,7.97
2019-03-21T18:45:29.326Z,8.07
2019-03-21T18:47:57.939Z,7.90
2019-03-21T18:50:26.506Z,7.20
2019-03-21T18:52:55.052Z,7.90
2019-03-21T18:55:23.626Z,7.37
2019-03-21T18:57:52.158Z,7.70
2019-03-21T19:00:21.465Z,7.87
2019-03-21T19:02:51.562Z,7.67
2019-03-21T19:05:20.133Z,6.97
2019-03-21T19:07:48.689Z,8.30
2019-03-21T19:10:17.787Z,8.23
2019-03-21T19:12:46.330Z,7.97
2019-03-21T19:15:18.667Z,7.77
2019-03-21T19:17:47.278Z,7.67
2019-03-21T19:20:19.667Z,8.60
2019-03-21T19:22:48.323Z,10.50
2019-03-21T19:25:19.648Z,10.87
2019-03-21T19:27:48.374Z,9.53
2019-03-21T19:30:21.159Z,9.40
2019-03-21T19:32:49.974Z,9.33
2019-03-21T19:35:18.619Z,9.90
2019-03-21T19:37:47.222Z,10.00
2019-03-21T19:40:17.994Z,9.50
2019-03-21T19:42:46.534Z,9.03
2019-03-21T19:45:17.022Z,9.23
2019-03-21T19:47:45.661Z,9.87
2019-03-21T19:50:16.910Z,10.90
2019-03-21T19:52:45.777Z,12.07
2019-03-21T19:55:14.954Z,10.10
2019-03-21T19:57:43.593Z,9.83
2019-03-21T20:00:17.950Z,11.57
2019-03-21T20:02:46.590Z,9.53
2019-03-21T20:05:15.280Z,9.03
2019-03-21T20:07:43.890Z,9.23
2019-03-21T20:10:17.591Z,9.83
2019-03-21T20:12:46.204Z,9.37
2019-03-21T20:15:18.753Z,10.03
2019-03-21T20:17:47.432Z,9.37
2019-03-21T20:20:19.046Z,10.07
2019-03-21T20:22:47.931Z,9.47
2019-03-21T20:25:16.562Z,9.50
2019-03-21T20:27:45.220Z,8.30
2019-03-21T20:30:22.883Z,8.77
2019-03-21T20:32:52.145Z,8.47
2019-03-21T20:35:20.715Z,8.90
2019-03-21T20:37:50.215Z,9.43
2019-03-21T20:40:19.930Z,8.87
2019-03-21T20:42:48.570Z,8.60
2019-03-21T20:45:21.098Z,8.60
2019-03-21T20:47:49.677Z,8.87
2019-03-21T20:50:18.546Z,8.43
2019-03-21T20:52:47.215Z,8.67
2019-03-21T20:55:16.014Z,8.97
2019-03-21T20:57:44.668Z,7.97
2019-03-21T21:00:23.510Z,8.57
2019-03-21T21:02:53.810Z,8.77
2019-03-21T21:05:23.262Z,9.40
2019-03-21T21:07:52.038Z,9.27
2019-03-21T21:10:22.581Z,8.10
2019-03-21T21:12:51.291Z,9.00
2019-03-21T21:15:19.830Z,9.00
2019-03-21T21:17:49.239Z,8.93
2019-03-21T21:20:18.620Z,8.10
2019-03-21T21:22:47.195Z,8.30
2019-03-21T21:25:15.878Z,8.70
2019-03-21T21:27:49.842Z,9.20
2019-03-21T21:30:22.078Z,10.20
2019-03-21T21:32:50.729Z,9.10
2019-03-21T21:35:19.253Z,9.27
2019-03-21T21:37:47.834Z,9.70
2019-03-21T21:40:17.622Z,7.80
2019-03-21T21:42:47.082Z,8.47
2019-03-21T21:45:16.861Z,7.80
2019-03-21T21:47:45.867Z,8.03
2019-03-21T21:50:16.659Z,6.77
2019-03-21T21:52:45.271Z,8.17
2019-03-21T21:55:14.288Z,7.50
2019-03-21T21:57:42.890Z,7.47
2019-03-21T22:00:14.802Z,7.67
2019-03-21T22:02:43.334Z,7.10
2019-03-21T22:05:12.366Z,6.60
2019-03-21T22:07:40.905Z,6.60
2019-03-21T22:10:09.886Z,6.97
2019-03-21T22:12:38.471Z,6.63
2019-03-21T22:15:14.147Z,6.47
2019-03-21T22:17:42.745Z,6.30
2019-03-21T22:20:12.994Z,6.37
2019-03-21T22:22:41.522Z,5.60
2019-03-21T22:25:10.773Z,6.00
2019-03-21T22:27:39.345Z,5.40
2019-03-21T22:30:16.691Z,5.47
2019-03-21T22:32:45.347Z,5.83
2019-03-21T22:35:14.426Z,5.57
2019-03-21T22:37:43.022Z,5.70
2019-03-21T22:40:16.341Z,5.93
2019-03-21T22:42:44.996Z,6.53
2019-03-21T22:45:17.430Z,5.60
2019-03-21T22:47:46.076Z,6.60
2019-03-21T22:50:17.983Z,5.97
2019-03-21T22:52:46.557Z,8.70
2019-03-21T22:55:15.172Z,8.17
2019-03-21T22:57:43.852Z,8.67
2019-03-21T23:00:15.750Z,7.80
2019-03-21T23:02:44.731Z,7.30
2019-03-21T23:05:13.609Z,6.50
2019-03-21T23:07:42.178Z,6.47
2019-03-21T23:10:11.483Z,6.07
2019-03-21T23:12:40.203Z,5.70
2019-03-21T23:15:13.362Z,6.27
2019-03-21T23:17:42.438Z,6.00
2019-03-21T23:20:13.938Z,6.30
2019-03-21T23:22:42.543Z,6.83
2019-03-21T23:25:12.119Z,5.70
2019-03-21T23:27:40.685Z,5.50
2019-03-21T23:30:18.154Z,5.83
2019-03-21T23:32:46.790Z,6.20
2019-03-21T23:35:15.564Z,6.10
2019-03-21T23:37:44.308Z,6.80
2019-03-21T23:40:16.442Z,6.40
2019-03-21T23:42:45.081Z,6.03
2019-03-21T23:45:14.496Z,6.27
2019-03-21T23:47:43.312Z,6.00
2019-03-21T23:50:16.386Z,6.20
2019-03-21T23:52:44.927Z,6.30
2019-03-21T23:55:14.148Z,6.93
2019-03-21T23:57:42.850Z,6.30
